sensor_id;sensor_type;location;lat;lon;timestamp;pressure;altitude;pressure_sealevel;temperature;humidity
20023;BME280;10172;42.054;24.546;2023-06-05T00:00:40;98578.56;;;16.47;100.00
20023;BME280;10172;42.054;24.546;2023-06-05T00:03:05;98567.19;;;15.40;100.00
20023;BME280;10172;42.054;24.546;2023-06-05T00:05:31;98521.28;;;14.69;100.00
20023;BME280;10172;42.054;24.546;2023-06-05T00:07:57;98543.91;;;14.87;100.00
20023;BME280;10172;42.054;24.546;2023-06-05T00:10:22;98566.28;;;15.83;100.00
20023;BME280;10172;42.054;24.546;2023-06-05T00:12:48;98575.56;;;15.79;100.00
20023;BME280;10172;42.054;24.546;2023-06-05T00:15:14;98573.75;;;15.36;100.00
20023;BME280;10172;42.054;24.546;2023-06-05T00:17:39;98573.88;;;15.78;100.00
20023;BME280;10172;42.054;24.546;2023-06-05T00:20:05;98547.31;;;15.75;100.00
20023;BME280;10172;42.054;24.546;2023-06-05T00:22:31;98547.41;;;15.52;100.00
20023;BME280;10172;42.054;24.546;2023-06-05T00:24:59;98587.69;;;16.14;100.00
20023;BME280;10172;42.054;24.546;2023-06-05T00:27:24;98547.53;;;15.08;100.00
20023;BME280;10172;42.054;24.546;2023-06-05T00:29:50;98567.53;;;14.71;100.00
20023;BME280;10172;42.054;24.546;2023-06-05T00:32:15;98572.44;;;15.20;100.00
20023;BME280;10172;42.054;24.546;2023-06-05T00:34:41;98566.00;;;15.22;100.00
20023;BME280;10172;42.054;24.546;2023-06-05T00:37:06;98548.81;;;15.25;100.00
20023;BME280;10172;42.054;24.546;2023-06-05T00:39:32;98586.91;;;15.50;100.00
20023;BME280;10172;42.054;24.546;2023-06-05T00:41:58;98584.34;;;16.22;100.00
20023;BME280;10172;42.054;24.546;2023-06-05T00:44:24;98549.59;;;15.79;100.00
20023;BME280;10172;42.054;24.546;2023-06-05T00:46:50;98548.69;;;15.69;100.00
20023;BME280;10172;42.054;24.546;2023-06-05T00:49:18;98590.41;;;15.62;100.00
20023;BME280;10172;42.054;24.546;2023-06-05T00:51:45;98547.41;;;15.52;100.00
20023;BME280;10172;42.054;24.546;2023-06-05T00:54:12;98559.75;;;15.96;100.00
20023;BME280;10172;42.054;24.546;2023-06-05T00:56:39;98573.53;;;15.71;100.00
20023;BME280;10172;42.054;24.546;2023-06-05T00:59:07;98571.59;;;15.73;100.00
20023;BME280;10172;42.054;24.546;2023-06-05T01:01:32;98604.94;;;15.80;100.00
20023;BME280;10172;42.054;24.546;2023-06-05T01:04:00;98587.91;;;16.02;100.00
20023;BME280;10172;42.054;24.546;2023-06-05T01:06:29;98575.97;;;16.36;100.00
20023;BME280;10172;42.054;24.546;2023-06-05T01:08:56;98575.41;;;15.91;100.00
20023;BME280;10172;42.054;24.546;2023-06-05T01:11:40;98597.41;;;15.74;100.00
20023;BME280;10172;42.054;24.546;2023-06-05T01:16:38;98591.44;;;16.23;100.00
20023;BME280;10172;42.054;24.546;2023-06-05T01:19:04;98589.00;;;15.99;100.00
20023;BME280;10172;42.054;24.546;2023-06-05T01:21:32;98621.59;;;16.15;100.00
20023;BME280;10172;42.054;24.546;2023-06-05T01:24:00;98597.31;;;16.38;100.00
20023;BME280;10172;42.054;24.546;2023-06-05T01:26:47;98612.09;;;16.73;100.00
20023;BME280;10172;42.054;24.546;2023-06-05T01:30:03;98594.16;;;16.12;100.00
20023;BME280;10172;42.054;24.546;2023-06-05T01:32:13;98585.28;;;15.91;100.00
20023;BME280;10172;42.054;24.546;2023-06-05T01:34:43;98583.31;;;15.93;100.00
20023;BME280;10172;42.054;24.546;2023-06-05T01:37:09;98575.03;;;15.85;100.00
20023;BME280;10172;42.054;24.546;2023-06-05T01:39:39;98608.06;;;15.65;100.00
20023;BME280;10172;42.054;24.546;2023-06-05T01:42:06;98595.59;;;15.75;100.00
20023;BME280;10172;42.054;24.546;2023-06-05T01:44:32;98614.97;;;15.78;100.00
20023;BME280;10172;42.054;24.546;2023-06-05T01:46:59;98589.25;;;15.96;100.00
20023;BME280;10172;42.054;24.546;2023-06-05T01:49:25;98601.16;;;15.83;100.00
20023;BME280;10172;42.054;24.546;2023-06-05T01:51:50;98588.91;;;15.26;100.00
20023;BME280;10172;42.054;24.546;2023-06-05T01:54:16;98591.34;;;15.18;100.00
20023;BME280;10172;42.054;24.546;2023-06-05T01:56:41;98603.91;;;15.18;100.00
20023;BME280;10172;42.054;24.546;2023-06-05T01:59:08;98629.00;;;16.02;100.00
20023;BME280;10172;42.054;24.546;2023-06-05T02:01:34;98632.28;;;16.47;100.00
20023;BME280;10172;42.054;24.546;2023-06-05T02:04:01;98622.97;;;16.10;100.00
20023;BME280;10172;42.054;24.546;2023-06-05T02:06:32;98628.16;;;14.61;100.00
20023;BME280;10172;42.054;24.546;2023-06-05T02:09:07;98639.69;;;15.17;100.00
20023;BME280;10172;42.054;24.546;2023-06-05T02:11:34;98578.38;;;14.58;100.00
20023;BME280;10172;42.054;24.546;2023-06-05T02:14:01;98619.88;;;15.08;100.00
20023;BME280;10172;42.054;24.546;2023-06-05T02:16:27;98604.31;;;15.88;100.00
20023;BME280;10172;42.054;24.546;2023-06-05T02:18:52;98589.91;;;16.51;100.00
20023;BME280;10172;42.054;24.546;2023-06-05T02:21:17;98626.84;;;16.17;100.00
20023;BME280;10172;42.054;24.546;2023-06-05T02:23:43;98611.78;;;16.26;100.00
20023;BME280;10172;42.054;24.546;2023-06-05T02:26:09;98593.91;;;16.15;100.00
20023;BME280;10172;42.054;24.546;2023-06-05T02:28:34;98620.63;;;16.37;100.00
20023;BME280;10172;42.054;24.546;2023-06-05T02:31:00;98585.88;;;15.94;100.00
20023;BME280;10172;42.054;24.546;2023-06-05T02:33:26;98609.19;;;16.35;100.00
20023;BME280;10172;42.054;24.546;2023-06-05T02:35:53;98611.25;;;16.73;100.00
20023;BME280;10172;42.054;24.546;2023-06-05T02:38:18;98645.41;;;17.22;100.00
20023;BME280;10172;42.054;24.546;2023-06-05T02:40:44;98614.25;;;16.38;100.00
20023;BME280;10172;42.054;24.546;2023-06-05T02:43:10;98607.97;;;15.55;100.00
20023;BME280;10172;42.054;24.546;2023-06-05T02:45:36;98598.44;;;14.97;100.00
20023;BME280;10172;42.054;24.546;2023-06-05T02:48:02;98602.13;;;15.50;100.00
20023;BME280;10172;42.054;24.546;2023-06-05T02:50:27;98626.97;;;15.95;100.00
20023;BME280;10172;42.054;24.546;2023-06-05T02:52:53;98614.53;;;15.94;100.00
20023;BME280;10172;42.054;24.546;2023-06-05T02:55:18;98598.06;;;16.49;100.00
20023;BME280;10172;42.054;24.546;2023-06-05T02:57:44;98591.78;;;17.30;100.00
20023;BME280;10172;42.054;24.546;2023-06-05T03:00:14;98617.78;;;17.88;100.00
20023;BME280;10172;42.054;24.546;2023-06-05T03:02:41;98581.13;;;16.49;100.00
20023;BME280;10172;42.054;24.546;2023-06-05T03:05:07;98579.75;;;17.34;100.00
20023;BME280;10172;42.054;24.546;2023-06-05T03:07:33;98587.28;;;16.91;100.00
20023;BME280;10172;42.054;24.546;2023-06-05T03:10:00;98577.22;;;16.32;100.00
20023;BME280;10172;42.054;24.546;2023-06-05T03:12:26;98576.09;;;16.55;100.00
20023;BME280;10172;42.054;24.546;2023-06-05T03:14:51;98617.09;;;16.16;100.00
20023;BME280;10172;42.054;24.546;2023-06-05T03:17:17;98576.94;;;16.14;100.00
20023;BME280;10172;42.054;24.546;2023-06-05T03:19:42;98584.97;;;16.05;100.00
20023;BME280;10172;42.054;24.546;2023-06-05T03:22:08;98586.91;;;15.50;100.00
20023;BME280;10172;42.054;24.546;2023-06-05T03:24:33;98576.66;;;16.38;100.00
20023;BME280;10172;42.054;24.546;2023-06-05T03:27:03;98607.41;;;17.06;100.00
20023;BME280;10172;42.054;24.546;2023-06-05T03:29:29;98562.75;;;17.33;100.00
20023;BME280;10172;42.054;24.546;2023-06-05T03:31:55;98578.81;;;17.73;100.00
20023;BME280;10172;42.054;24.546;2023-06-05T03:34:20;98579.53;;;18.04;100.00
20023;BME280;10172;42.054;24.546;2023-06-05T03:36:51;98599.06;;;18.06;100.00
20023;BME280;10172;42.054;24.546;2023-06-05T03:39:17;98578.41;;;17.87;100.00
20023;BME280;10172;42.054;24.546;2023-06-05T03:41:42;98581.97;;;17.78;100.00
20023;BME280;10172;42.054;24.546;2023-06-05T03:44:08;98576.59;;;17.78;100.00
20023;BME280;10172;42.054;24.546;2023-06-05T03:46:34;98552.41;;;17.10;100.00
20023;BME280;10172;42.054;24.546;2023-06-05T03:49:01;98559.38;;;17.31;100.00
20023;BME280;10172;42.054;24.546;2023-06-05T03:51:31;98576.66;;;17.48;100.00
20023;BME280;10172;42.054;24.546;2023-06-05T03:53:57;98598.22;;;17.77;100.00
20023;BME280;10172;42.054;24.546;2023-06-05T03:56:27;98591.00;;;17.87;100.00
20023;BME280;10172;42.054;24.546;2023-06-05T03:59:04;98597.97;;;17.89;100.00
20023;BME280;10172;42.054;24.546;2023-06-05T04:01:44;98597.13;;;18.08;100.00
20023;BME280;10172;42.054;24.546;2023-06-05T04:04:10;98620.31;;;17.71;100.00
20023;BME280;10172;42.054;24.546;2023-06-05T04:06:36;98609.28;;;17.64;100.00
20023;BME280;10172;42.054;24.546;2023-06-05T04:09:02;98592.78;;;17.29;100.00
20023;BME280;10172;42.054;24.546;2023-06-05T04:11:34;98591.56;;;15.48;100.00
20023;BME280;10172;42.054;24.546;2023-06-05T04:13:59;98576.47;;;15.14;100.00
20023;BME280;10172;42.054;24.546;2023-06-05T04:16:25;98576.38;;;16.11;100.00
20023;BME280;10172;42.054;24.546;2023-06-05T04:18:50;98578.44;;;16.69;100.00
20023;BME280;10172;42.054;24.546;2023-06-05T04:21:16;98599.22;;;17.07;100.00
20023;BME280;10172;42.054;24.546;2023-06-05T04:23:41;98606.75;;;17.23;100.00
20023;BME280;10172;42.054;24.546;2023-06-05T04:26:07;98592.22;;;16.55;100.00
20023;BME280;10172;42.054;24.546;2023-06-05T04:28:32;98600.22;;;15.30;100.00
20023;BME280;10172;42.054;24.546;2023-06-05T04:31:00;98622.22;;;15.55;100.00
20023;BME280;10172;42.054;24.546;2023-06-05T04:33:27;98596.66;;;15.51;100.00
20023;BME280;10172;42.054;24.546;2023-06-05T04:35:52;98593.69;;;15.54;100.00
20023;BME280;10172;42.054;24.546;2023-06-05T04:38:18;98615.19;;;16.48;100.00
20023;BME280;10172;42.054;24.546;2023-06-05T04:40:47;98636.34;;;16.21;100.00
20023;BME280;10172;42.054;24.546;2023-06-05T04:43:14;98641.16;;;16.89;100.00
20023;BME280;10172;42.054;24.546;2023-06-05T04:45:40;98629.94;;;16.54;100.00
20023;BME280;10172;42.054;24.546;2023-06-05T04:48:07;98630.50;;;16.78;100.00
20023;BME280;10172;42.054;24.546;2023-06-05T04:50:32;98638.66;;;16.46;100.00
20023;BME280;10172;42.054;24.546;2023-06-05T04:52:58;98613.69;;;16.55;100.00
20023;BME280;10172;42.054;24.546;2023-06-05T04:55:24;98618.41;;;16.22;100.00
20023;BME280;10172;42.054;24.546;2023-06-05T04:57:50;98634.13;;;16.26;100.00
20023;BME280;10172;42.054;24.546;2023-06-05T05:00:16;98646.75;;;16.35;100.00
20023;BME280;10172;42.054;24.546;2023-06-05T05:02:42;98627.94;;;16.77;100.00
20023;BME280;10172;42.054;24.546;2023-06-05T05:05:08;98619.94;;;16.86;100.00
20023;BME280;10172;42.054;24.546;2023-06-05T05:07:41;98618.63;;;16.81;100.00
20023;BME280;10172;42.054;24.546;2023-06-05T05:10:08;98657.44;;;18.34;100.00
20023;BME280;10172;42.054;24.546;2023-06-05T05:12:34;98627.94;;;18.42;100.00
20023;BME280;10172;42.054;24.546;2023-06-05T05:14:59;98628.69;;;18.91;100.00
20023;BME280;10172;42.054;24.546;2023-06-05T05:17:25;98631.91;;;19.04;100.00
20023;BME280;10172;42.054;24.546;2023-06-05T05:19:51;98633.63;;;17.63;100.00
20023;BME280;10172;42.054;24.546;2023-06-05T05:22:16;98656.91;;;17.43;100.00
20023;BME280;10172;42.054;24.546;2023-06-05T05:24:42;98655.84;;;17.55;100.00
20023;BME280;10172;42.054;24.546;2023-06-05T05:27:07;98660.50;;;17.53;100.00
20023;BME280;10172;42.054;24.546;2023-06-05T05:29:33;98673.56;;;17.27;100.00
20023;BME280;10172;42.054;24.546;2023-06-05T05:31:59;98684.22;;;17.78;100.00
20023;BME280;10172;42.054;24.546;2023-06-05T05:34:24;98686.09;;;17.08;100.00
20023;BME280;10172;42.054;24.546;2023-06-05T05:36:50;98661.63;;;16.81;100.00
20023;BME280;10172;42.054;24.546;2023-06-05T05:39:16;98701.44;;;16.34;100.00
20023;BME280;10172;42.054;24.546;2023-06-05T05:41:43;98659.22;;;15.84;100.00
20023;BME280;10172;42.054;24.546;2023-06-05T05:44:08;98683.47;;;15.82;100.00
20023;BME280;10172;42.054;24.546;2023-06-05T05:46:33;98675.69;;;16.11;100.00
20023;BME280;10172;42.054;24.546;2023-06-05T05:48:59;98647.84;;;15.26;100.00
20023;BME280;10172;42.054;24.546;2023-06-05T05:51:24;98677.41;;;16.01;100.00
20023;BME280;10172;42.054;24.546;2023-06-05T05:53:50;98676.59;;;16.21;100.00
20023;BME280;10172;42.054;24.546;2023-06-05T05:56:16;98649.16;;;16.38;100.00
20023;BME280;10172;42.054;24.546;2023-06-05T05:58:41;98694.88;;;17.19;100.00
20023;BME280;10172;42.054;24.546;2023-06-05T06:01:08;98625.31;;;17.26;100.00
20023;BME280;10172;42.054;24.546;2023-06-05T06:03:34;98644.91;;;15.94;100.00
20023;BME280;10172;42.054;24.546;2023-06-05T06:06:05;98647.53;;;16.05;100.00
20023;BME280;10172;42.054;24.546;2023-06-05T06:08:34;98629.13;;;16.84;100.00
20023;BME280;10172;42.054;24.546;2023-06-05T06:11:03;98630.53;;;17.67;100.00
20023;BME280;10172;42.054;24.546;2023-06-05T06:13:32;98615.38;;;17.57;100.00
20023;BME280;10172;42.054;24.546;2023-06-05T06:15:58;98646.72;;;17.37;100.00
20023;BME280;10172;42.054;24.546;2023-06-05T06:18:23;98623.66;;;16.95;100.00
20023;BME280;10172;42.054;24.546;2023-06-05T06:20:49;98630.78;;;17.15;100.00
20023;BME280;10172;42.054;24.546;2023-06-05T06:23:14;98670.53;;;17.51;100.00
20023;BME280;10172;42.054;24.546;2023-06-05T06:25:40;98613.63;;;16.46;100.00
20023;BME280;10172;42.054;24.546;2023-06-05T06:28:06;98694.50;;;16.94;100.00
20023;BME280;10172;42.054;24.546;2023-06-05T06:30:31;98638.25;;;17.11;100.00
20023;BME280;10172;42.054;24.546;2023-06-05T06:32:57;98691.84;;;17.33;100.00
20023;BME280;10172;42.054;24.546;2023-06-05T06:35:25;98693.31;;;16.45;100.00
20023;BME280;10172;42.054;24.546;2023-06-05T06:37:55;98692.91;;;17.52;100.00
20023;BME280;10172;42.054;24.546;2023-06-05T06:40:21;98650.47;;;17.55;100.00
20023;BME280;10172;42.054;24.546;2023-06-05T06:42:47;98694.66;;;17.62;100.00
20023;BME280;10172;42.054;24.546;2023-06-05T06:45:12;98680.09;;;16.95;100.00
20023;BME280;10172;42.054;24.546;2023-06-05T06:47:38;98636.75;;;17.28;100.00
20023;BME280;10172;42.054;24.546;2023-06-05T06:50:04;98670.13;;;16.86;100.00
20023;BME280;10172;42.054;24.546;2023-06-05T06:52:30;98650.22;;;17.28;100.00
20023;BME280;10172;42.054;24.546;2023-06-05T06:54:55;98631.50;;;17.66;100.00
20023;BME280;10172;42.054;24.546;2023-06-05T06:57:21;98639.41;;;18.44;100.00
20023;BME280;10172;42.054;24.546;2023-06-05T06:59:47;98649.50;;;17.85;100.00
20023;BME280;10172;42.054;24.546;2023-06-05T07:02:13;98686.50;;;18.69;100.00
20023;BME280;10172;42.054;24.546;2023-06-05T07:04:40;98643.41;;;18.50;100.00
20023;BME280;10172;42.054;24.546;2023-06-05T07:07:09;98649.22;;;18.17;100.00
20023;BME280;10172;42.054;24.546;2023-06-05T07:09:36;98641.19;;;18.82;100.00
20023;BME280;10172;42.054;24.546;2023-06-05T07:12:02;98640.72;;;18.31;100.00
20023;BME280;10172;42.054;24.546;2023-06-05T07:14:32;98687.94;;;19.00;100.00
20023;BME280;10172;42.054;24.546;2023-06-05T07:16:59;98625.19;;;18.81;100.00
20023;BME280;10172;42.054;24.546;2023-06-05T07:19:29;98661.41;;;19.87;100.00
20023;BME280;10172;42.054;24.546;2023-06-05T07:21:56;98680.00;;;18.62;100.00
20023;BME280;10172;42.054;24.546;2023-06-05T07:24:25;98621.41;;;19.38;100.00
20023;BME280;10172;42.054;24.546;2023-06-05T07:26:53;98680.13;;;20.34;100.00
20023;BME280;10172;42.054;24.546;2023-06-05T07:29:21;98610.13;;;19.87;100.00
20023;BME280;10172;42.054;24.546;2023-06-05T07:31:47;98646.47;;;20.71;100.00
20023;BME280;10172;42.054;24.546;2023-06-05T07:34:14;98683.09;;;19.78;100.00
20023;BME280;10172;42.054;24.546;2023-06-05T07:36:40;98635.66;;;20.10;100.00
20023;BME280;10172;42.054;24.546;2023-06-05T07:39:06;98684.25;;;21.32;100.00
20023;BME280;10172;42.054;24.546;2023-06-05T07:41:31;98618.59;;;19.57;100.00
20023;BME280;10172;42.054;24.546;2023-06-05T07:43:57;98620.69;;;20.34;100.00
20023;BME280;10172;42.054;24.546;2023-06-05T07:46:22;98648.09;;;21.50;100.00
20023;BME280;10172;42.054;24.546;2023-06-05T07:48:48;98618.31;;;21.50;100.00
20023;BME280;10172;42.054;24.546;2023-06-05T07:51:13;98626.66;;;22.30;100.00
20023;BME280;10172;42.054;24.546;2023-06-05T07:53:39;98655.41;;;22.15;100.00
20023;BME280;10172;42.054;24.546;2023-06-05T07:56:05;98641.84;;;22.88;100.00
20023;BME280;10172;42.054;24.546;2023-06-05T07:58:31;98644.41;;;22.00;100.00
20023;BME280;10172;42.054;24.546;2023-06-05T08:00:57;98642.22;;;22.36;100.00
20023;BME280;10172;42.054;24.546;2023-06-05T08:03:24;98617.25;;;22.97;100.00
20023;BME280;10172;42.054;24.546;2023-06-05T08:05:50;98635.03;;;23.08;100.00
20023;BME280;10172;42.054;24.546;2023-06-05T08:08:16;98611.63;;;23.07;100.00
20023;BME280;10172;42.054;24.546;2023-06-05T08:10:42;98628.97;;;22.01;100.00
20023;BME280;10172;42.054;24.546;2023-06-05T08:13:08;98620.03;;;22.09;100.00
20023;BME280;10172;42.054;24.546;2023-06-05T08:15:34;98618.09;;;23.06;100.00
20023;BME280;10172;42.054;24.546;2023-06-05T08:18:00;98612.28;;;23.09;100.00
20023;BME280;10172;42.054;24.546;2023-06-05T08:20:25;98604.38;;;23.46;100.00
20023;BME280;10172;42.054;24.546;2023-06-05T08:22:51;98625.09;;;23.78;100.00
20023;BME280;10172;42.054;24.546;2023-06-05T08:25:16;98651.47;;;24.23;100.00
20023;BME280;10172;42.054;24.546;2023-06-05T08:27:42;98612.72;;;23.29;100.00
20023;BME280;10172;42.054;24.546;2023-06-05T08:30:08;98604.22;;;23.40;100.00
20023;BME280;10172;42.054;24.546;2023-06-05T08:32:33;98631.66;;;23.53;100.00
20023;BME280;10172;42.054;24.546;2023-06-05T08:34:59;98637.78;;;23.47;100.00
20023;BME280;10172;42.054;24.546;2023-06-05T08:37:25;98648.94;;;23.91;100.00
20023;BME280;10172;42.054;24.546;2023-06-05T08:39:50;98611.09;;;23.89;100.00
20023;BME280;10172;42.054;24.546;2023-06-05T08:42:16;98614.31;;;23.85;97.87
20023;BME280;10172;42.054;24.546;2023-06-05T08:44:46;98597.28;;;23.37;98.39
20023;BME280;10172;42.054;24.546;2023-06-05T08:47:15;98609.59;;;23.56;100.00
20023;BME280;10172;42.054;24.546;2023-06-05T08:49:41;98603.22;;;23.33;100.00
20023;BME280;10172;42.054;24.546;2023-06-05T08:52:08;98586.91;;;22.94;100.00
20023;BME280;10172;42.054;24.546;2023-06-05T08:54:38;98595.50;;;23.52;100.00
20023;BME280;10172;42.054;24.546;2023-06-05T08:57:07;98639.94;;;23.59;100.00
20023;BME280;10172;42.054;24.546;2023-06-05T08:59:34;98613.94;;;23.26;100.00
20023;BME280;10172;42.054;24.546;2023-06-05T09:02:00;98622.81;;;23.59;100.00
20023;BME280;10172;42.054;24.546;2023-06-05T09:04:26;98635.97;;;24.01;100.00
20023;BME280;10172;42.054;24.546;2023-06-05T09:06:56;98605.97;;;23.63;100.00
20023;BME280;10172;42.054;24.546;2023-06-05T09:09:21;98621.16;;;23.80;98.90
20023;BME280;10172;42.054;24.546;2023-06-05T09:11:47;98595.16;;;24.09;97.60
20023;BME280;10172;42.054;24.546;2023-06-05T09:14:25;98632.50;;;24.15;96.68
20023;BME280;10172;42.054;24.546;2023-06-05T09:16:51;98632.56;;;24.29;96.49
20023;BME280;10172;42.054;24.546;2023-06-05T09:19:16;98569.72;;;22.46;100.00
20023;BME280;10172;42.054;24.546;2023-06-05T09:21:51;98634.06;;;22.77;100.00
20023;BME280;10172;42.054;24.546;2023-06-05T09:24:19;98593.09;;;23.18;100.00
20023;BME280;10172;42.054;24.546;2023-06-05T09:29:11;98605.41;;;23.99;96.46
20023;BME280;10172;42.054;24.546;2023-06-05T09:31:43;98592.31;;;23.49;98.36
20023;BME280;10172;42.054;24.546;2023-06-05T09:34:09;98612.13;;;23.57;99.50
20023;BME280;10172;42.054;24.546;2023-06-05T09:36:44;98599.63;;;23.71;100.00
20023;BME280;10172;42.054;24.546;2023-06-05T09:39:14;98628.53;;;23.95;96.96
20023;BME280;10172;42.054;24.546;2023-06-05T09:41:44;98630.22;;;23.96;97.25
20023;BME280;10172;42.054;24.546;2023-06-05T09:44:10;98568.94;;;23.70;95.77
20023;BME280;10172;42.054;24.546;2023-06-05T09:49:26;98581.41;;;24.33;93.25
20023;BME280;10172;42.054;24.546;2023-06-05T09:51:52;98585.72;;;24.79;90.67
20023;BME280;10172;42.054;24.546;2023-06-05T09:54:19;98586.50;;;23.83;92.67
20023;BME280;10172;42.054;24.546;2023-06-05T09:56:49;98583.31;;;24.02;91.81
20023;BME280;10172;42.054;24.546;2023-06-05T09:59:19;98553.97;;;23.74;94.36
20023;BME280;10172;42.054;24.546;2023-06-05T10:01:50;98583.22;;;24.18;91.90
20023;BME280;10172;42.054;24.546;2023-06-05T10:04:19;98582.56;;;24.16;89.54
20023;BME280;10172;42.054;24.546;2023-06-05T10:06:46;98581.22;;;24.12;91.34
20023;BME280;10172;42.054;24.546;2023-06-05T10:09:14;98544.78;;;23.98;91.63
20023;BME280;10172;42.054;24.546;2023-06-05T10:11:41;98576.78;;;24.33;90.72
20023;BME280;10172;42.054;24.546;2023-06-05T10:14:09;98576.19;;;23.78;92.24
20023;BME280;10172;42.054;24.546;2023-06-05T10:16:35;98621.28;;;24.41;91.78
20023;BME280;10172;42.054;24.546;2023-06-05T10:19:02;98569.22;;;24.81;88.57
20023;BME280;10172;42.054;24.546;2023-06-05T10:21:28;98592.97;;;25.02;87.68
20023;BME280;10172;42.054;24.546;2023-06-05T10:24:12;98554.75;;;25.10;85.04
20023;BME280;10172;42.054;24.546;2023-06-05T10:27:02;98607.22;;;25.62;83.83
20023;BME280;10172;42.054;24.546;2023-06-05T10:35:12;98565.00;;;25.08;86.43
20023;BME280;10172;42.054;24.546;2023-06-05T10:40:52;98586.00;;;25.28;84.60
20023;BME280;10172;42.054;24.546;2023-06-05T10:43:31;98594.19;;;24.99;86.09
20023;BME280;10172;42.054;24.546;2023-06-05T10:45:59;98573.88;;;25.31;85.42
20023;BME280;10172;42.054;24.546;2023-06-05T10:51:52;98579.97;;;25.62;84.10
20023;BME280;10172;42.054;24.546;2023-06-05T10:57:03;98547.50;;;25.82;82.90
20023;BME280;10172;42.054;24.546;2023-06-05T10:59:34;98553.97;;;25.60;83.94
20023;BME280;10172;42.054;24.546;2023-06-05T11:10:10;98532.94;;;25.53;81.34
20023;BME280;10172;42.054;24.546;2023-06-05T11:17:37;98535.69;;;26.17;82.31
20023;BME280;10172;42.054;24.546;2023-06-05T11:20:08;98475.31;;;25.35;82.77
20023;BME280;10172;42.054;24.546;2023-06-05T11:27:51;98485.41;;;25.56;81.38
20023;BME280;10172;42.054;24.546;2023-06-05T11:30:23;98470.06;;;25.55;81.62
20023;BME280;10172;42.054;24.546;2023-06-05T11:32:50;98522.50;;;25.99;81.28
20023;BME280;10172;42.054;24.546;2023-06-05T11:35:25;98540.28;;;26.38;78.68
20023;BME280;10172;42.054;24.546;2023-06-05T11:40:39;98505.63;;;26.32;77.71
20023;BME280;10172;42.054;24.546;2023-06-05T11:43:06;98510.00;;;26.54;78.75
20023;BME280;10172;42.054;24.546;2023-06-05T11:45:33;98510.03;;;26.33;78.35
20023;BME280;10172;42.054;24.546;2023-06-05T11:48:08;98487.47;;;25.54;80.96
20023;BME280;10172;42.054;24.546;2023-06-05T11:50:34;98503.44;;;26.21;78.36
20023;BME280;10172;42.054;24.546;2023-06-05T11:53:07;98508.44;;;25.75;78.91
20023;BME280;10172;42.054;24.546;2023-06-05T11:55:33;98519.47;;;26.30;78.12
20023;BME280;10172;42.054;24.546;2023-06-05T11:58:40;98509.06;;;26.47;76.29
20023;BME280;10172;42.054;24.546;2023-06-05T12:03:34;98496.88;;;26.15;77.35
20023;BME280;10172;42.054;24.546;2023-06-05T12:06:01;98486.84;;;26.43;77.42
20023;BME280;10172;42.054;24.546;2023-06-05T12:08:31;98509.84;;;26.68;78.24
20023;BME280;10172;42.054;24.546;2023-06-05T12:11:03;98505.41;;;26.61;76.81
20023;BME280;10172;42.054;24.546;2023-06-05T12:13:45;98513.34;;;26.56;76.59
20023;BME280;10172;42.054;24.546;2023-06-05T12:16:11;98471.56;;;26.49;75.00
20023;BME280;10172;42.054;24.546;2023-06-05T12:18:37;98508.84;;;26.14;76.09
20023;BME280;10172;42.054;24.546;2023-06-05T12:21:03;98498.63;;;26.50;76.66
20023;BME280;10172;42.054;24.546;2023-06-05T12:23:30;98485.84;;;26.85;74.04
20023;BME280;10172;42.054;24.546;2023-06-05T12:26:03;98524.91;;;27.26;72.43
20023;BME280;10172;42.054;24.546;2023-06-05T12:28:30;98489.34;;;27.13;70.82
20023;BME280;10172;42.054;24.546;2023-06-05T12:30:57;98502.44;;;27.24;70.67
20023;BME280;10172;42.054;24.546;2023-06-05T12:33:23;98506.19;;;27.17;68.88
20023;BME280;10172;42.054;24.546;2023-06-05T12:36:05;98501.28;;;27.47;70.56
20023;BME280;10172;42.054;24.546;2023-06-05T12:38:30;98460.13;;;27.55;67.97
20023;BME280;10172;42.054;24.546;2023-06-05T12:41:01;98453.81;;;27.74;67.85
20023;BME280;10172;42.054;24.546;2023-06-05T12:43:27;98442.91;;;27.87;65.36
20023;BME280;10172;42.054;24.546;2023-06-05T12:45:52;98450.06;;;27.81;67.15
20023;BME280;10172;42.054;24.546;2023-06-05T12:48:19;98462.19;;;27.53;68.41
20023;BME280;10172;42.054;24.546;2023-06-05T12:50:45;98460.13;;;27.81;66.19
20023;BME280;10172;42.054;24.546;2023-06-05T12:53:11;98473.78;;;27.68;67.51
20023;BME280;10172;42.054;24.546;2023-06-05T12:55:36;98452.97;;;27.67;65.04
20023;BME280;10172;42.054;24.546;2023-06-05T12:58:02;98461.00;;;27.81;64.51
20023;BME280;10172;42.054;24.546;2023-06-05T13:00:27;98446.47;;;27.94;62.86
20023;BME280;10172;42.054;24.546;2023-06-05T13:02:53;98469.66;;;28.24;63.36
20023;BME280;10172;42.054;24.546;2023-06-05T13:05:18;98446.28;;;28.28;64.04
20023;BME280;10172;42.054;24.546;2023-06-05T13:07:44;98434.72;;;28.07;64.84
20023;BME280;10172;42.054;24.546;2023-06-05T13:10:10;98409.66;;;27.90;64.22
20023;BME280;10172;42.054;24.546;2023-06-05T13:12:38;98431.16;;;28.19;62.74
20023;BME280;10172;42.054;24.546;2023-06-05T13:15:04;98448.38;;;28.00;66.52
20023;BME280;10172;42.054;24.546;2023-06-05T13:17:32;98456.13;;;27.90;63.49
20023;BME280;10172;42.054;24.546;2023-06-05T13:20:00;98462.72;;;28.22;61.67
20023;BME280;10172;42.054;24.546;2023-06-05T13:22:26;98466.06;;;28.37;62.19
20023;BME280;10172;42.054;24.546;2023-06-05T13:24:52;98443.97;;;28.12;63.19
20023;BME280;10172;42.054;24.546;2023-06-05T13:27:17;98448.78;;;27.90;63.26
20023;BME280;10172;42.054;24.546;2023-06-05T13:29:44;98471.50;;;27.84;62.17